sensor_id;sensor_type;location;lat;lon;timestamp;temperature;humidity
3630;DHT22;1831;53.626;10.012;2022-09-29T00:00:54;16.60;59.70
3630;DHT22;1831;53.626;10.012;2022-09-29T00:03:22;16.70;59.80
3630;DHT22;1831;53.626;10.012;2022-09-29T00:05:51;16.70;59.60
3630;DHT22;1831;53.626;10.012;2022-09-29T00:08:20;16.70;59.50
3630;DHT22;1831;53.626;10.012;2022-09-29T00:10:48;16.70;59.40
3630;DHT22;1831;53.626;10.012;2022-09-29T00:13:19;16.70;59.10
3630;DHT22;1831;53.626;10.012;2022-09-29T00:15:54;16.70;59.00
3630;DHT22;1831;53.626;10.012;2022-09-29T00:18:21;16.60;59.00
3630;DHT22;1831;53.626;10.012;2022-09-29T00:20:55;16.60;59.00
3630;DHT22;1831;53.626;10.012;2022-09-29T00:23:22;16.50;59.00
3630;DHT22;1831;53.626;10.012;2022-09-29T00:26:02;16.50;59.10
3630;DHT22;1831;53.626;10.012;2022-09-29T00:28:31;16.40;59.10
3630;DHT22;1831;53.626;10.012;2022-09-29T00:30:59;16.40;59.10
3630;DHT22;1831;53.626;10.012;2022-09-29T00:33:28;16.40;59.10
3630;DHT22;1831;53.626;10.012;2022-09-29T00:35:57;16.30;59.20
3630;DHT22;1831;53.626;10.012;2022-09-29T00:38:25;16.30;59.30
3630;DHT22;1831;53.626;10.012;2022-09-29T00:40:52;16.30;59.40
3630;DHT22;1831;53.626;10.012;2022-09-29T00:43:22;16.20;59.40
3630;DHT22;1831;53.626;10.012;2022-09-29T00:45:53;16.20;59.50
3630;DHT22;1831;53.626;10.012;2022-09-29T00:48:25;16.30;59.60
3630;DHT22;1831;53.626;10.012;2022-09-29T00:50:55;16.20;59.50
3630;DHT22;1831;53.626;10.012;2022-09-29T00:53:24;16.20;59.50
3630;DHT22;1831;53.626;10.012;2022-09-29T00:55:54;16.20;59.60
3630;DHT22;1831;53.626;10.012;2022-09-29T00:58:27;16.20;59.70
3630;DHT22;1831;53.626;10.012;2022-09-29T01:00:57;16.20;60.00
3630;DHT22;1831;53.626;10.012;2022-09-29T01:03:26;16.20;60.00
3630;DHT22;1831;53.626;10.012;2022-09-29T01:05:56;16.20;60.00
3630;DHT22;1831;53.626;10.012;2022-09-29T01:08:27;16.20;60.00
3630;DHT22;1831;53.626;10.012;2022-09-29T01:10:56;16.20;60.10
3630;DHT22;1831;53.626;10.012;2022-09-29T01:13:24;16.10;60.10
3630;DHT22;1831;53.626;10.012;2022-09-29T01:15:50;16.20;60.40
3630;DHT22;1831;53.626;10.012;2022-09-29T01:18:19;16.10;60.30
3630;DHT22;1831;53.626;10.012;2022-09-29T01:20:52;16.20;60.60
3630;DHT22;1831;53.626;10.012;2022-09-29T01:32:27;16.20;60.40
3630;DHT22;1831;53.626;10.012;2022-09-29T01:35:02;16.10;60.30
3630;DHT22;1831;53.626;10.012;2022-09-29T01:37:41;16.10;60.30
3630;DHT22;1831;53.626;10.012;2022-09-29T01:40:13;16.10;60.20
3630;DHT22;1831;53.626;10.012;2022-09-29T01:42:47;16.10;60.20
3630;DHT22;1831;53.626;10.012;2022-09-29T01:45:22;16.10;60.30
3630;DHT22;1831;53.626;10.012;2022-09-29T01:47:54;16.10;60.30
3630;DHT22;1831;53.626;10.012;2022-09-29T01:50:25;16.10;60.50
3630;DHT22;1831;53.626;10.012;2022-09-29T01:52:56;16.10;60.20
3630;DHT22;1831;53.626;10.012;2022-09-29T01:55:29;16.10;60.20
3630;DHT22;1831;53.626;10.012;2022-09-29T01:57:59;16.10;60.10
3630;DHT22;1831;53.626;10.012;2022-09-29T02:00:28;16.00;60.00
3630;DHT22;1831;53.626;10.012;2022-09-29T02:03:02;16.00;60.00
3630;DHT22;1831;53.626;10.012;2022-09-29T02:05:35;16.00;60.80
3630;DHT22;1831;53.626;10.012;2022-09-29T02:08:07;16.00;60.20
3630;DHT22;1831;53.626;10.012;2022-09-29T02:10:38;15.90;60.10
3630;DHT22;1831;53.626;10.012;2022-09-29T02:13:08;15.90;60.10
3630;DHT22;1831;53.626;10.012;2022-09-29T02:15:38;15.90;60.10
3630;DHT22;1831;53.626;10.012;2022-09-29T02:18:13;15.90;60.00
3630;DHT22;1831;53.626;10.012;2022-09-29T02:20:42;15.90;60.00
3630;DHT22;1831;53.626;10.012;2022-09-29T02:23:09;15.90;60.00
3630;DHT22;1831;53.626;10.012;2022-09-29T02:25:38;15.90;60.10
3630;DHT22;1831;53.626;10.012;2022-09-29T02:28:06;15.90;60.00
3630;DHT22;1831;53.626;10.012;2022-09-29T02:30:34;15.90;60.00
3630;DHT22;1831;53.626;10.012;2022-09-29T02:33:01;15.90;60.00
3630;DHT22;1831;53.626;10.012;2022-09-29T02:35:39;15.90;60.40
3630;DHT22;1831;53.626;10.012;2022-09-29T02:38:15;15.90;60.00
3630;DHT22;1831;53.626;10.012;2022-09-29T02:40:52;15.90;60.00
3630;DHT22;1831;53.626;10.012;2022-09-29T02:43:37;15.90;59.90
3630;DHT22;1831;53.626;10.012;2022-09-29T02:46:17;15.90;59.90
3630;DHT22;1831;53.626;10.012;2022-09-29T02:49:02;15.90;59.90
3630;DHT22;1831;53.626;10.012;2022-09-29T02:51:38;15.90;59.90
3630;DHT22;1831;53.626;10.012;2022-09-29T02:54:36;15.90;59.90
3630;DHT22;1831;53.626;10.012;2022-09-29T02:57:14;15.80;59.90
3630;DHT22;1831;53.626;10.012;2022-09-29T02:59:48;15.80;60.00
3630;DHT22;1831;53.626;10.012;2022-09-29T03:02:22;15.80;60.00
3630;DHT22;1831;53.626;10.012;2022-09-29T03:04:50;15.80;60.10
3630;DHT22;1831;53.626;10.012;2022-09-29T03:07:18;15.80;60.10
3630;DHT22;1831;53.626;10.012;2022-09-29T03:09:45;15.80;60.20
3630;DHT22;1831;53.626;10.012;2022-09-29T03:12:12;15.80;60.10
3630;DHT22;1831;53.626;10.012;2022-09-29T03:14:38;15.80;60.20
3630;DHT22;1831;53.626;10.012;2022-09-29T03:17:05;15.80;60.20
3630;DHT22;1831;53.626;10.012;2022-09-29T03:19:32;15.70;60.40
3630;DHT22;1831;53.626;10.012;2022-09-29T03:21:59;15.70;60.50
3630;DHT22;1831;53.626;10.012;2022-09-29T03:24:27;15.70;60.60
3630;DHT22;1831;53.626;10.012;2022-09-29T03:26:54;15.70;60.60
3630;DHT22;1831;53.626;10.012;2022-09-29T03:29:21;15.70;60.80
3630;DHT22;1831;53.626;10.012;2022-09-29T03:31:48;15.80;60.80
3630;DHT22;1831;53.626;10.012;2022-09-29T03:34:15;15.70;60.60
3630;DHT22;1831;53.626;10.012;2022-09-29T03:36:42;15.80;60.80
3630;DHT22;1831;53.626;10.012;2022-09-29T03:39:09;15.70;60.80
3630;DHT22;1831;53.626;10.012;2022-09-29T03:41:37;15.70;60.80
3630;DHT22;1831;53.626;10.012;2022-09-29T03:44:04;15.70;60.80
3630;DHT22;1831;53.626;10.012;2022-09-29T03:46:30;15.70;60.80
3630;DHT22;1831;53.626;10.012;2022-09-29T03:48:57;15.60;60.80
3630;DHT22;1831;53.626;10.012;2022-09-29T03:51:24;15.60;60.90
3630;DHT22;1831;53.626;10.012;2022-09-29T03:53:51;15.70;60.90
3630;DHT22;1831;53.626;10.012;2022-09-29T03:56:19;15.70;60.90
3630;DHT22;1831;53.626;10.012;2022-09-29T03:58:47;15.60;60.80
3630;DHT22;1831;53.626;10.012;2022-09-29T04:01:14;15.60;61.00
3630;DHT22;1831;53.626;10.012;2022-09-29T04:03:41;15.60;61.10
3630;DHT22;1831;53.626;10.012;2022-09-29T04:06:08;15.60;61.10
3630;DHT22;1831;53.626;10.012;2022-09-29T04:08:35;15.60;61.10
3630;DHT22;1831;53.626;10.012;2022-09-29T04:11:03;15.60;61.10
3630;DHT22;1831;53.626;10.012;2022-09-29T04:13:30;15.60;61.00
3630;DHT22;1831;53.626;10.012;2022-09-29T04:15:59;15.60;61.00
3630;DHT22;1831;53.626;10.012;2022-09-29T04:18:26;15.60;61.00
3630;DHT22;1831;53.626;10.012;2022-09-29T04:20:53;15.60;60.90
3630;DHT22;1831;53.626;10.012;2022-09-29T04:23:21;15.60;60.80
3630;DHT22;1831;53.626;10.012;2022-09-29T04:25:48;15.60;60.90
3630;DHT22;1831;53.626;10.012;2022-09-29T04:28:15;15.60;61.00
3630;DHT22;1831;53.626;10.012;2022-09-29T04:30:42;15.60;61.00
3630;DHT22;1831;53.626;10.012;2022-09-29T04:33:10;15.60;61.10
3630;DHT22;1831;53.626;10.012;2022-09-29T04:35:37;15.60;61.20
3630;DHT22;1831;53.626;10.012;2022-09-29T04:38:04;15.60;61.20
3630;DHT22;1831;53.626;10.012;2022-09-29T04:40:32;15.60;61.20
3630;DHT22;1831;53.626;10.012;2022-09-29T04:42:59;15.60;61.20
3630;DHT22;1831;53.626;10.012;2022-09-29T04:45:26;15.60;61.20
3630;DHT22;1831;53.626;10.012;2022-09-29T04:47:53;15.50;61.00
3630;DHT22;1831;53.626;10.012;2022-09-29T04:50:22;15.60;61.20
3630;DHT22;1831;53.626;10.012;2022-09-29T04:52:49;15.60;61.30
3630;DHT22;1831;53.626;10.012;2022-09-29T04:55:16;15.60;61.40
3630;DHT22;1831;53.626;10.012;2022-09-29T04:57:43;15.60;61.40
3630;DHT22;1831;53.626;10.012;2022-09-29T05:00:11;15.60;61.50
3630;DHT22;1831;53.626;10.012;2022-09-29T05:02:38;15.60;61.50
3630;DHT22;1831;53.626;10.012;2022-09-29T05:05:06;15.60;61.50
3630;DHT22;1831;53.626;10.012;2022-09-29T05:07:36;15.60;61.40
3630;DHT22;1831;53.626;10.012;2022-09-29T05:10:03;15.60;61.60
3630;DHT22;1831;53.626;10.012;2022-09-29T05:12:30;15.60;61.50
3630;DHT22;1831;53.626;10.012;2022-09-29T05:14:57;15.70;61.60
3630;DHT22;1831;53.626;10.012;2022-09-29T05:17:24;15.60;61.40
3630;DHT22;1831;53.626;10.012;2022-09-29T05:19:51;15.60;61.50
3630;DHT22;1831;53.626;10.012;2022-09-29T05:22:18;15.60;61.60
3630;DHT22;1831;53.626;10.012;2022-09-29T05:24:50;15.60;61.70
3630;DHT22;1831;53.626;10.012;2022-09-29T05:27:17;15.60;61.80
3630;DHT22;1831;53.626;10.012;2022-09-29T05:29:44;15.60;61.80
3630;DHT22;1831;53.626;10.012;2022-09-29T05:32:11;15.60;61.80
3630;DHT22;1831;53.626;10.012;2022-09-29T05:34:38;15.60;61.80
3630;DHT22;1831;53.626;10.012;2022-09-29T05:37:05;15.60;61.80
3630;DHT22;1831;53.626;10.012;2022-09-29T05:39:32;15.60;62.20
3630;DHT22;1831;53.626;10.012;2022-09-29T05:42:00;15.60;63.50
3630;DHT22;1831;53.626;10.012;2022-09-29T05:44:28;15.60;63.10
3630;DHT22;1831;53.626;10.012;2022-09-29T05:46:55;15.50;63.30
3630;DHT22;1831;53.626;10.012;2022-09-29T05:49:21;15.60;62.70
3630;DHT22;1831;53.626;10.012;2022-09-29T05:51:48;15.60;62.60
3630;DHT22;1831;53.626;10.012;2022-09-29T05:54:15;15.70;62.60
3630;DHT22;1831;53.626;10.012;2022-09-29T05:56:42;15.70;62.60
3630;DHT22;1831;53.626;10.012;2022-09-29T05:59:11;15.60;62.70
3630;DHT22;1831;53.626;10.012;2022-09-29T06:01:37;15.60;63.60
3630;DHT22;1831;53.626;10.012;2022-09-29T06:04:04;15.70;62.90
3630;DHT22;1831;53.626;10.012;2022-09-29T06:06:31;15.60;63.00
3630;DHT22;1831;53.626;10.012;2022-09-29T06:09:00;15.70;63.30
3630;DHT22;1831;53.626;10.012;2022-09-29T06:11:29;15.70;63.70
3630;DHT22;1831;53.626;10.012;2022-09-29T06:13:57;15.70;63.70
3630;DHT22;1831;53.626;10.012;2022-09-29T06:16:27;15.70;64.30
3630;DHT22;1831;53.626;10.012;2022-09-29T06:18:55;15.70;63.60
3630;DHT22;1831;53.626;10.012;2022-09-29T06:21:23;15.80;63.70
3630;DHT22;1831;53.626;10.012;2022-09-29T06:23:51;15.80;63.80
3630;DHT22;1831;53.626;10.012;2022-09-29T06:26:20;15.80;63.90
3630;DHT22;1831;53.626;10.012;2022-09-29T06:28:47;15.80;63.80
3630;DHT22;1831;53.626;10.012;2022-09-29T06:31:16;15.80;63.90
3630;DHT22;1831;53.626;10.012;2022-09-29T06:33:44;15.80;64.00
3630;DHT22;1831;53.626;10.012;2022-09-29T06:36:15;15.80;64.10
3630;DHT22;1831;53.626;10.012;2022-09-29T06:39:00;15.90;64.20
3630;DHT22;1831;53.626;10.012;2022-09-29T06:41:27;15.90;64.20
3630;DHT22;1831;53.626;10.012;2022-09-29T06:43:54;16.00;64.10
3630;DHT22;1831;53.626;10.012;2022-09-29T06:46:22;16.00;64.20
3630;DHT22;1831;53.626;10.012;2022-09-29T06:48:52;16.10;64.40
3630;DHT22;1831;53.626;10.012;2022-09-29T06:51:20;16.00;64.30
3630;DHT22;1831;53.626;10.012;2022-09-29T06:53:47;16.00;64.50
3630;DHT22;1831;53.626;10.012;2022-09-29T06:56:14;16.10;64.60
3630;DHT22;1831;53.626;10.012;2022-09-29T06:58:41;16.20;64.80
3630;DHT22;1831;53.626;10.012;2022-09-29T07:01:09;16.20;64.80
3630;DHT22;1831;53.626;10.012;2022-09-29T07:03:37;16.20;64.80
3630;DHT22;1831;53.626;10.012;2022-09-29T07:06:07;16.30;64.60
3630;DHT22;1831;53.626;10.012;2022-09-29T07:08:35;16.30;64.60
3630;DHT22;1831;53.626;10.012;2022-09-29T07:11:03;16.30;64.30
3630;DHT22;1831;53.626;10.012;2022-09-29T07:13:31;16.30;64.30
3630;DHT22;1831;53.626;10.012;2022-09-29T07:16:03;16.30;64.40
3630;DHT22;1831;53.626;10.012;2022-09-29T07:18:31;16.20;64.50
3630;DHT22;1831;53.626;10.012;2022-09-29T07:20:59;16.10;64.50
3630;DHT22;1831;53.626;10.012;2022-09-29T07:23:27;16.10;64.50
3630;DHT22;1831;53.626;10.012;2022-09-29T07:25:54;16.00;64.60
3630;DHT22;1831;53.626;10.012;2022-09-29T07:28:21;16.00;64.60
3630;DHT22;1831;53.626;10.012;2022-09-29T07:30:59;16.00;64.80
3630;DHT22;1831;53.626;10.012;2022-09-29T07:33:27;16.00;65.00
3630;DHT22;1831;53.626;10.012;2022-09-29T07:35:54;16.00;65.00
3630;DHT22;1831;53.626;10.012;2022-09-29T07:38:22;16.00;65.00
3630;DHT22;1831;53.626;10.012;2022-09-29T07:40:50;15.90;65.20
3630;DHT22;1831;53.626;10.012;2022-09-29T07:43:17;16.00;64.80
3630;DHT22;1831;53.626;10.012;2022-09-29T07:45:46;15.90;64.80
3630;DHT22;1831;53.626;10.012;2022-09-29T07:48:13;16.00;64.90
3630;DHT22;1831;53.626;10.012;2022-09-29T07:50:41;16.10;64.80
3630;DHT22;1831;53.626;10.012;2022-09-29T07:53:08;16.10;64.70
3630;DHT22;1831;53.626;10.012;2022-09-29T07:55:35;16.10;64.60
3630;DHT22;1831;53.626;10.012;2022-09-29T07:58:03;16.10;64.50
3630;DHT22;1831;53.626;10.012;2022-09-29T08:00:30;16.10;64.50
3630;DHT22;1831;53.626;10.012;2022-09-29T08:03:01;16.00;64.60
3630;DHT22;1831;53.626;10.012;2022-09-29T08:05:28;15.90;64.60
3630;DHT22;1831;53.626;10.012;2022-09-29T08:07:58;16.00;64.80
3630;DHT22;1831;53.626;10.012;2022-09-29T08:10:26;16.00;65.70
3630;DHT22;1831;53.626;10.012;2022-09-29T08:12:53;16.00;65.10
3630;DHT22;1831;53.626;10.012;2022-09-29T08:15:22;16.10;65.10
3630;DHT22;1831;53.626;10.012;2022-09-29T08:17:51;16.20;65.10
3630;DHT22;1831;53.626;10.012;2022-09-29T08:20:18;16.30;65.20
3630;DHT22;1831;53.626;10.012;2022-09-29T08:22:45;16.30;65.20
3630;DHT22;1831;53.626;10.012;2022-09-29T08:25:13;16.30;65.30
3630;DHT22;1831;53.626;10.012;2022-09-29T08:27:40;16.40;65.30
3630;DHT22;1831;53.626;10.012;2022-09-29T08:30:08;16.40;65.20
3630;DHT22;1831;53.626;10.012;2022-09-29T08:32:36;16.50;65.20
3630;DHT22;1831;53.626;10.012;2022-09-29T08:35:04;16.60;66.00
3630;DHT22;1831;53.626;10.012;2022-09-29T08:37:31;16.60;65.10
3630;DHT22;1831;53.626;10.012;2022-09-29T08:39:58;16.50;65.10
3630;DHT22;1831;53.626;10.012;2022-09-29T08:42:37;16.60;65.10
3630;DHT22;1831;53.626;10.012;2022-09-29T08:45:11;16.70;64.90
3630;DHT22;1831;53.626;10.012;2022-09-29T08:47:42;16.80;64.90
3630;DHT22;1831;53.626;10.012;2022-09-29T08:50:24;16.80;64.80
3630;DHT22;1831;53.626;10.012;2022-09-29T08:52:54;16.80;64.80
3630;DHT22;1831;53.626;10.012;2022-09-29T08:55:26;16.90;64.70
3630;DHT22;1831;53.626;10.012;2022-09-29T08:57:57;16.90;64.60
3630;DHT22;1831;53.626;10.012;2022-09-29T09:00:32;16.90;64.60
3630;DHT22;1831;53.626;10.012;2022-09-29T09:03:13;16.90;64.30
3630;DHT22;1831;53.626;10.012;2022-09-29T09:06:05;16.80;64.40
3630;DHT22;1831;53.626;10.012;2022-09-29T09:08:46;16.70;64.50
3630;DHT22;1831;53.626;10.012;2022-09-29T09:11:33;16.70;64.90
3630;DHT22;1831;53.626;10.012;2022-09-29T09:14:12;16.80;64.90
3630;DHT22;1831;53.626;10.012;2022-09-29T09:16:50;16.90;64.90
3630;DHT22;1831;53.626;10.012;2022-09-29T09:19:41;17.10;64.80
3630;DHT22;1831;53.626;10.012;2022-09-29T09:22:32;17.00;64.80
3630;DHT22;1831;53.626;10.012;2022-09-29T09:25:09;17.00;64.70
3630;DHT22;1831;53.626;10.012;2022-09-29T09:27:41;17.00;64.60
3630;DHT22;1831;53.626;10.012;2022-09-29T09:30:13;17.00;64.70
3630;DHT22;1831;53.626;10.012;2022-09-29T09:32:45;17.10;64.70
3630;DHT22;1831;53.626;10.012;2022-09-29T09:35:29;17.10;64.40
3630;DHT22;1831;53.626;10.012;2022-09-29T09:38:01;17.10;64.50
3630;DHT22;1831;53.626;10.012;2022-09-29T09:40:35;17.20;64.50
3630;DHT22;1831;53.626;10.012;2022-09-29T09:43:09;17.20;64.40
3630;DHT22;1831;53.626;10.012;2022-09-29T09:45:42;17.20;64.40
3630;DHT22;1831;53.626;10.012;2022-09-29T09:48:15;17.30;64.50
3630;DHT22;1831;53.626;10.012;2022-09-29T09:50:46;17.20;64.50
3630;DHT22;1831;53.626;10.012;2022-09-29T09:53:18;17.20;64.60
3630;DHT22;1831;53.626;10.012;2022-09-29T09:55:52;17.30;64.80
3630;DHT22;1831;53.626;10.012;2022-09-29T09:58:36;17.40;64.70
3630;DHT22;1831;53.626;10.012;2022-09-29T10:01:06;17.50;64.50
3630;DHT22;1831;53.626;10.012;2022-09-29T10:03:36;17.60;64.30
3630;DHT22;1831;53.626;10.012;2022-09-29T10:06:06;17.70;64.30
3630;DHT22;1831;53.626;10.012;2022-09-29T10:08:35;17.70;64.30
3630;DHT22;1831;53.626;10.012;2022-09-29T10:11:15;17.60;64.30
3630;DHT22;1831;53.626;10.012;2022-09-29T10:13:46;17.60;63.90
3630;DHT22;1831;53.626;10.012;2022-09-29T10:16:16;17.70;64.10
3630;DHT22;1831;53.626;10.012;2022-09-29T10:18:46;17.80;63.90
3630;DHT22;1831;53.626;10.012;2022-09-29T10:21:25;17.80;63.60
3630;DHT22;1831;53.626;10.012;2022-09-29T10:24:01;17.90;63.50
3630;DHT22;1831;53.626;10.012;2022-09-29T10:26:32;17.90;63.50
3630;DHT22;1831;53.626;10.012;2022-09-29T10:29:02;17.90;63.30
3630;DHT22;1831;53.626;10.012;2022-09-29T10:31:32;17.90;63.10
3630;DHT22;1831;53.626;10.012;2022-09-29T10:34:02;17.80;63.10
3630;DHT22;1831;53.626;10.012;2022-09-29T10:36:45;17.60;62.80
3630;DHT22;1831;53.626;10.012;2022-09-29T10:39:32;17.30;63.90
3630;DHT22;1831;53.626;10.012;2022-09-29T10:42:00;17.50;63.90
3630;DHT22;1831;53.626;10.012;2022-09-29T10:44:31;17.60;63.90
3630;DHT22;1831;53.626;10.012;2022-09-29T10:46:59;17.70;63.70
3630;DHT22;1831;53.626;10.012;2022-09-29T10:49:27;17.60;63.80
3630;DHT22;1831;53.626;10.012;2022-09-29T10:52:02;17.60;64.00
3630;DHT22;1831;53.626;10.012;2022-09-29T10:54:33;17.70;64.00
3630;DHT22;1831;53.626;10.012;2022-09-29T10:57:11;17.70;64.20
3630;DHT22;1831;53.626;10.012;2022-09-29T10:59:45;17.60;64.30
3630;DHT22;1831;53.626;10.012;2022-09-29T11:02:19;17.40;64.30
3630;DHT22;1831;53.626;10.012;2022-09-29T11:04:47;17.10;64.90
3630;DHT22;1831;53.626;10.012;2022-09-29T11:07:16;17.30;65.20
3630;DHT22;1831;53.626;10.012;2022-09-29T11:09:43;17.30;65.00
3630;DHT22;1831;53.626;10.012;2022-09-29T11:12:26;17.40;65.30
3630;DHT22;1831;53.626;10.012;2022-09-29T11:14:53;17.40;65.10
3630;DHT22;1831;53.626;10.012;2022-09-29T11:17:22;17.60;65.00
3630;DHT22;1831;53.626;10.012;2022-09-29T11:19:50;17.40;64.60
3630;DHT22;1831;53.626;10.012;2022-09-29T11:22:49;17.40;65.40
3630;DHT22;1831;53.626;10.012;2022-09-29T11:31:12;17.60;65.20
3630;DHT22;1831;53.626;10.012;2022-09-29T11:33:49;17.60;64.50
3630;DHT22;1831;53.626;10.012;2022-09-29T11:36:23;17.60;64.60
3630;DHT22;1831;53.626;10.012;2022-09-29T11:39:04;17.70;64.60
3630;DHT22;1831;53.626;10.012;2022-09-29T11:41:45;17.70;64.50
3630;DHT22;1831;53.626;10.012;2022-09-29T11:44:43;17.70;64.50
3630;DHT22;1831;53.626;10.012;2022-09-29T11:50:33;17.70;64.70
3630;DHT22;1831;53.626;10.012;2022-09-29T11:53:12;17.60;64.60
3630;DHT22;1831;53.626;10.012;2022-09-29T11:55:56;17.50;64.80
3630;DHT22;1831;53.626;10.012;2022-09-29T11:58:32;17.50;64.90
3630;DHT22;1831;53.626;10.012;2022-09-29T12:01:32;17.50;65.20
3630;DHT22;1831;53.626;10.012;2022-09-29T12:04:12;17.70;65.00
3630;DHT22;1831;53.626;10.012;2022-09-29T12:06:51;17.80;64.80
3630;DHT22;1831;53.626;10.012;2022-09-29T12:12:45;17.80;64.60
3630;DHT22;1831;53.626;10.012;2022-09-29T12:15:21;17.70;64.60
3630;DHT22;1831;53.626;10.012;2022-09-29T12:17:53;17.70;64.50
3630;DHT22;1831;53.626;10.012;2022-09-29T12:20:24;17.70;64.70
3630;DHT22;1831;53.626;10.012;2022-09-29T12:22:53;17.80;64.50
3630;DHT22;1831;53.626;10.012;2022-09-29T12:25:22;17.70;64.60
3630;DHT22;1831;53.626;10.012;2022-09-29T12:27:54;17.80;64.60
3630;DHT22;1831;53.626;10.012;2022-09-29T12:30:24;17.90;64.10
3630;DHT22;1831;53.626;10.012;2022-09-29T12:32:59;17.70;63.70
3630;DHT22;1831;53.626;10.012;2022-09-29T12:35:30;17.80;63.80
3630;DHT22;1831;53.626;10.012;2022-09-29T12:38:09;17.90;63.80
3630;DHT22;1831;53.626;10.012;2022-09-29T12:40:43;17.80;63.70
3630;DHT22;1831;53.626;10.012;2022-09-29T12:43:18;17.70;63.30
3630;DHT22;1831;53.626;10.012;2022-09-29T12:45:53;17.80;64.00
3630;DHT22;1831;53.626;10.012;2022-09-29T12:48:41;17.80;63.70
3630;DHT22;1831;53.626;10.012;2022-09-29T12:51:15;17.80;63.70
3630;DHT22;1831;53.626;10.012;2022-09-29T12:53:53;17.70;63.30
3630;DHT22;1831;53.626;10.012;2022-09-29T12:56:25;17.80;63.40
3630;DHT22;1831;53.626;10.012;2022-09-29T12:59:00;17.90;63.10
3630;DHT22;1831;53.626;10.012;2022-09-29T13:01:30;18.00;62.40
3630;DHT22;1831;53.626;10.012;2022-09-29T13:04:18;17.90;62.40
3630;DHT22;1831;53.626;10.012;2022-09-29T13:07:16;17.80;62.70
3630;DHT22;1831;53.626;10.012;2022-09-29T13:13:25;17.90;62.30
3630;DHT22;1831;53.626;10.012;2022-09-29T13:16:04;17.80;62.20
3630;DHT22;1831;53.626;10.012;2022-09-29T13:19:04;17.90;62.50
3630;DHT22;1831;53.626;10.012;2022-09-29T13:21:41;17.90;62.80
3630;DHT22;1831;53.626;10.012;2022-09-29T13:24:23;18.00;62.90
3630;DHT22;1831;53.626;10.012;2022-09-29T13:27:15;17.90;63.30
3630;DHT22;1831;53.626;10.012;2022-09-29T13:29:48;17.90;63.70
3630;DHT22;1831;53.626;10.012;2022-09-29T13:32:17;17.90;64.20
3630;DHT22;1831;53.626;10.012;2022-09-29T13:34:47;17.80;64.90
3630;DHT22;1831;53.626;10.012;2022-09-29T13:37:20;17.70;65.60
3630;DHT22;1831;53.626;10.012;2022-09-29T13:39:54;17.70;65.70
3630;DHT22;1831;53.626;10.012;2022-09-29T13:42:41;17.60;65.80
3630;DHT22;1831;53.626;10.012;2022-09-29T13:48:41;17.50;66.20
3630;DHT22;1831;53.626;10.012;2022-09-29T13:51:44;17.60;66.70
3630;DHT22;1831;53.626;10.012;2022-09-29T13:54:30;17.60;67.00
3630;DHT22;1831;53.626;10.012;2022-09-29T13:57:01;17.70;67.10
3630;DHT22;1831;53.626;10.012;2022-09-29T13:59:30;17.70;67.10
3630;DHT22;1831;53.626;10.012;2022-09-29T14:01:58;17.60;67.30
3630;DHT22;1831;53.626;10.012;2022-09-29T14:04:49;17.50;67.50
3630;DHT22;1831;53.626;10.012;2022-09-29T14:07:36;17.40;68.10
3630;DHT22;1831;53.626;10.012;2022-09-29T14:10:06;17.50;68.60
3630;DHT22;1831;53.626;10.012;2022-09-29T14:12:40;17.50;68.70
3630;DHT22;1831;53.626;10.012;2022-09-29T14:15:09;17.60;69.00
3630;DHT22;1831;53.626;10.012;2022-09-29T14:17:44;17.60;68.50
3630;DHT22;1831;53.626;10.012;2022-09-29T14:20:16;17.70;68.90
3630;DHT22;1831;53.626;10.012;2022-09-29T14:22:59;17.60;68.90
3630;DHT22;1831;53.626;10.012;2022-09-29T14:25:48;17.70;69.00
3630;DHT22;1831;53.626;10.012;2022-09-29T14:28:21;17.80;68.80
3630;DHT22;1831;53.626;10.012;2022-09-29T14:30:51;17.80;69.10
3630;DHT22;1831;53.626;10.012;2022-09-29T14:33:21;17.80;69.20
3630;DHT22;1831;53.626;10.012;2022-09-29T14:36:00;17.80;69.30
3630;DHT22;1831;53.626;10.012;2022-09-29T14:38:30;17.80;69.50
3630;DHT22;1831;53.626;10.012;2022-09-29T14:41:00;17.90;69.20
3630;DHT22;1831;53.626;10.012;2022-09-29T14:43:36;17.90;69.20
3630;DHT22;1831;53.626;10.012;2022-09-29T14:46:41;17.80;69.60
3630;DHT22;1831;53.626;10.012;2022-09-29T14:49:50;17.80;69.60
3630;DHT22;1831;53.626;10.012;2022-09-29T14:52:50;17.80;69.40
3630;DHT22;1831;53.626;10.012;2022-09-29T14:55:24;17.90;69.40
3630;DHT22;1831;53.626;10.012;2022-09-29T14:58:02;17.80;69.70
3630;DHT22;1831;53.626;10.012;2022-09-29T15:00:43;17.80;70.00
3630;DHT22;1831;53.626;10.012;2022-09-29T15:03:14;17.90;69.50
3630;DHT22;1831;53.626;10.012;2022-09-29T15:05:43;17.90;69.60
3630;DHT22;1831;53.626;10.012;2022-09-29T15:08:27;17.90;69.90
3630;DHT22;1831;53.626;10.012;2022-09-29T15:10:54;17.90;70.10
3630;DHT22;1831;53.626;10.012;2022-09-29T15:13:24;17.90;70.10
3630;DHT22;1831;53.626;10.012;2022-09-29T15:15:57;17.80;70.20
3630;DHT22;1831;53.626;10.012;2022-09-29T15:18:37;17.80;70.00
3630;DHT22;1831;53.626;10.012;2022-09-29T15:21:14;17.70;70.20
3630;DHT22;1831;53.626;10.012;2022-09-29T15:23:56;17.80;70.60
3630;DHT22;1831;53.626;10.012;2022-09-29T15:26:27;17.80;70.70
3630;DHT22;1831;53.626;10.012;2022-09-29T15:28:57;17.90;70.30
3630;DHT22;1831;53.626;10.012;2022-09-29T15:31:26;17.80;70.40
3630;DHT22;1831;53.626;10.012;2022-09-29T15:33:55;17.90;70.70
3630;DHT22;1831;53.626;10.012;2022-09-29T15:36:23;17.90;70.60
3630;DHT22;1831;53.626;10.012;2022-09-29T15:38:53;17.90;70.60
3630;DHT22;1831;53.626;10.012;2022-09-29T15:41:21;18.00;70.40
3630;DHT22;1831;53.626;10.012;2022-09-29T15:43:54;17.90;70.60
3630;DHT22;1831;53.626;10.012;2022-09-29T15:46:24;17.90;70.60
3630;DHT22;1831;53.626;10.012;2022-09-29T15:49:13;17.90;70.90
3630;DHT22;1831;53.626;10.012;2022-09-29T15:51:54;18.00;70.80
3630;DHT22;1831;53.626;10.012;2022-09-29T15:54:23;17.90;71.00
3630;DHT22;1831;53.626;10.012;2022-09-29T15:56:51;17.90;71.00
3630;DHT22;1831;53.626;10.012;2022-09-29T15:59:40;17.80;71.00
3630;DHT22;1831;53.626;10.012;2022-09-29T16:02:21;17.80;71.20
3630;DHT22;1831;53.626;10.012;2022-09-29T16:04:52;17.80;71.30
3630;DHT22;1831;53.626;10.012;2022-09-29T16:07:23;17.70;71.60
3630;DHT22;1831;53.626;10.012;2022-09-29T16:09:58;17.70;72.00
3630;DHT22;1831;53.626;10.012;2022-09-29T16:12:26;17.70;71.90
3630;DHT22;1831;53.626;10.012;2022-09-29T16:14:57;17.60;72.10
3630;DHT22;1831;53.626;10.012;2022-09-29T16:17:24;17.60;72.20
3630;DHT22;1831;53.626;10.012;2022-09-29T16:19:52;17.70;72.20
3630;DHT22;1831;53.626;10.012;2022-09-29T16:22:22;17.70;72.10
3630;DHT22;1831;53.626;10.012;2022-09-29T16:24:53;17.70;72.30
3630;DHT22;1831;53.626;10.012;2022-09-29T16:27:54;17.70;71.80
3630;DHT22;1831;53.626;10.012;2022-09-29T16:30:24;17.60;72.00
3630;DHT22;1831;53.626;10.012;2022-09-29T16:32:54;17.50;71.90
3630;DHT22;1831;53.626;10.012;2022-09-29T16:35:37;17.60;71.70
3630;DHT22;1831;53.626;10.012;2022-09-29T16:38:18;17.60;71.50
3630;DHT22;1831;53.626;10.012;2022-09-29T16:40:47;17.50;71.50
3630;DHT22;1831;53.626;10.012;2022-09-29T16:43:20;17.40;71.50
3630;DHT22;1831;53.626;10.012;2022-09-29T16:45:49;17.40;71.70